Belknap, Illinois
Current Conditions -  °F | °C
As of 8:55 AM on Friday 24 Oct 2014 (Local Time) from KM30 Reporting Station
Haze Haze  
Wind Chill: 49°   Ceiling: 2800
Heat Index: 49°   Visibility: 5mi
Dew Point: 49°   Wind: 0mph
Humidity: 100%   Direction: NA
Pressure: 30.13"   Gusts: NA
Location:  37.33°N, 88.94°W
Report Text: KM30 241355Z AUTO 00000KT 5SM BR SCT023 OVC028 09/09 A3013 RMK AO2 T00920092
Loading
Personal Weather Stations






























Interactive Weather Map
Tropical Storm Tracking
New forecast layout! Learn more

10-Day Weather Forecast

Advertisements
Track Severe Weather on mobile